createdAt,value
2019-02-26T00:00:27.174Z,1028.92
2019-02-26T00:01:28.688Z,1028.85
2019-02-26T00:02:28.904Z,1028.89
2019-02-26T00:03:28.550Z,1028.86
2019-02-26T00:04:27.278Z,1028.84
2019-02-26T00:05:28.581Z,1028.87
2019-02-26T00:06:28.354Z,1028.84
2019-02-26T00:07:28.119Z,1028.84
2019-02-26T00:08:29.099Z,1028.85
2019-02-26T00:09:27.638Z,1028.85
2019-02-26T00:10:29.038Z,1028.93
2019-02-26T00:11:29.026Z,1028.85
2019-02-26T00:12:28.681Z,1028.82
2019-02-26T00:13:27.666Z,1028.85
2019-02-26T00:14:27.589Z,1028.74
2019-02-26T00:15:26.936Z,1028.76
2019-02-26T00:16:26.942Z,1028.76
2019-02-26T00:17:26.920Z,1028.79
2019-02-26T00:18:26.903Z,1028.81
2019-02-26T00:19:26.896Z,1028.81
2019-02-26T00:20:26.881Z,1028.81
2019-02-26T00:21:28.706Z,1028.82
2019-02-26T00:22:26.867Z,1028.86
2019-02-26T00:23:28.028Z,1028.81
2019-02-26T00:24:30.383Z,1028.81
2019-02-26T00:25:26.829Z,1028.80
2019-02-26T00:26:26.818Z,1028.77
2019-02-26T00:27:28.146Z,1028.77
2019-02-26T00:28:26.798Z,1028.73
2019-02-26T00:29:28.126Z,1028.76
2019-02-26T00:30:26.773Z,1028.74
2019-02-26T00:31:28.759Z,1028.74
2019-02-26T00:32:26.768Z,1028.76
2019-02-26T00:33:27.269Z,1028.77
2019-02-26T00:34:26.735Z,1028.77
2019-02-26T00:35:27.668Z,1028.77
2019-02-26T00:36:27.551Z,1028.75
2019-02-26T00:37:28.355Z,1028.79
2019-02-26T00:38:26.687Z,1028.73
2019-02-26T00:39:27.150Z,1028.70
2019-02-26T00:40:26.681Z,1028.71
2019-02-26T00:41:26.803Z,1028.67
2019-02-26T00:42:28.669Z,1028.67
2019-02-26T00:43:27.918Z,1028.66
2019-02-26T00:44:27.529Z,1028.66
2019-02-26T00:45:27.244Z,1028.59
2019-02-26T00:46:28.485Z,1028.58
2019-02-26T00:47:29.906Z,1028.55
2019-02-26T00:48:27.579Z,1028.55
2019-02-26T00:49:28.131Z,1028.53
2019-02-26T00:50:28.126Z,1028.51
2019-02-26T00:51:27.000Z,1028.53
2019-02-26T00:52:28.161Z,1028.53
2019-02-26T00:53:28.341Z,1028.54
2019-02-26T00:54:28.712Z,1028.51
2019-02-26T00:55:29.377Z,1028.52
2019-02-26T00:56:29.150Z,1028.51
2019-02-26T00:57:27.327Z,1028.55
2019-02-26T00:58:26.470Z,1028.55
2019-02-26T00:59:26.459Z,1028.52
2019-02-26T01:00:28.430Z,1028.56
2019-02-26T01:01:26.438Z,1028.54
2019-02-26T01:02:26.455Z,1028.59
2019-02-26T01:03:26.417Z,1028.57
2019-02-26T01:04:26.421Z,1028.56
2019-02-26T01:05:26.405Z,1028.56
2019-02-26T01:06:26.883Z,1028.47
2019-02-26T01:07:28.139Z,1028.49
2019-02-26T01:08:26.362Z,1028.48
2019-02-26T01:09:27.357Z,1028.48
2019-02-26T01:10:26.355Z,1028.45
2019-02-26T01:11:28.006Z,1028.48
2019-02-26T01:12:26.339Z,1028.49
2019-02-26T01:13:28.418Z,1028.44
2019-02-26T01:14:26.300Z,1028.48
2019-02-26T01:15:26.300Z,1028.49
2019-02-26T01:16:26.277Z,1028.45
2019-02-26T01:17:26.327Z,1028.49
2019-02-26T01:18:26.851Z,1028.48
2019-02-26T01:19:26.266Z,1028.46
2019-02-26T01:20:27.502Z,1028.51
2019-02-26T01:21:28.518Z,1028.41
2019-02-26T01:22:26.260Z,1028.41
2019-02-26T01:23:26.798Z,1028.39
2019-02-26T01:24:27.993Z,1028.41
2019-02-26T01:25:26.183Z,1028.40
2019-02-26T01:26:27.830Z,1028.38
2019-02-26T01:27:26.173Z,1028.41
2019-02-26T01:28:27.070Z,1028.41
2019-02-26T01:29:27.730Z,1028.42
2019-02-26T01:30:27.024Z,1028.43
2019-02-26T01:31:27.361Z,1028.40
2019-02-26T01:32:26.128Z,1028.41
2019-02-26T01:33:27.794Z,1028.43
2019-02-26T01:34:26.079Z,1028.42
2019-02-26T01:35:26.259Z,1028.46
2019-02-26T01:36:26.112Z,1028.47
2019-02-26T01:37:27.771Z,1028.46
2019-02-26T01:38:26.054Z,1028.46
2019-02-26T01:39:26.026Z,1028.50
2019-02-26T01:40:26.015Z,1028.47
2019-02-26T01:41:27.325Z,1028.47
2019-02-26T01:42:27.173Z,1028.46
2019-02-26T01:43:26.000Z,1028.43
2019-02-26T01:44:28.031Z,1028.47
2019-02-26T01:45:27.221Z,1028.41
2019-02-26T01:46:25.948Z,1028.50
2019-02-26T01:47:26.300Z,1028.45
2019-02-26T01:48:25.947Z,1028.45
2019-02-26T01:49:27.988Z,1028.44
2019-02-26T01:50:25.906Z,1028.48
2019-02-26T01:51:26.670Z,1028.42
2019-02-26T01:52:25.886Z,1028.45
2019-02-26T01:53:27.360Z,1028.47
2019-02-26T01:54:25.863Z,1028.46
2019-02-26T01:55:27.621Z,1028.42
2019-02-26T01:56:25.840Z,1028.45
2019-02-26T01:57:27.686Z,1028.47
2019-02-26T01:58:25.836Z,1028.48
2019-02-26T01:59:25.810Z,1028.45
2019-02-26T02:00:26.079Z,1028.45
2019-02-26T02:01:26.242Z,1028.42
2019-02-26T02:02:27.759Z,1028.37
2019-02-26T02:03:27.821Z,1028.39
2019-02-26T02:04:25.756Z,1028.36
2019-02-26T02:05:28.571Z,1028.38
2019-02-26T02:06:25.733Z,1028.34
2019-02-26T02:07:27.775Z,1028.34
2019-02-26T02:08:25.735Z,1028.36
2019-02-26T02:09:25.701Z,1028.33
2019-02-26T02:10:25.691Z,1028.35
2019-02-26T02:11:28.270Z,1028.35
2019-02-26T02:12:27.788Z,1028.32
2019-02-26T02:13:28.249Z,1028.34
2019-02-26T02:14:25.658Z,1028.33
2019-02-26T02:15:25.641Z,1028.32
2019-02-26T02:16:27.269Z,1028.31
2019-02-26T02:17:25.619Z,1028.29
2019-02-26T02:18:27.591Z,1028.28
2019-02-26T02:19:27.424Z,1028.31
2019-02-26T02:20:25.582Z,1028.29
2019-02-26T02:21:26.003Z,1028.32
2019-02-26T02:22:25.564Z,1028.32
2019-02-26T02:23:26.224Z,1028.28
2019-02-26T02:24:25.538Z,1028.31
2019-02-26T02:25:29.006Z,1028.28
2019-02-26T02:26:26.533Z,1028.27
2019-02-26T02:27:28.139Z,1028.22
2019-02-26T02:28:26.307Z,1028.17
2019-02-26T02:29:28.065Z,1028.20
2019-02-26T02:30:30.245Z,1028.17
2019-02-26T02:31:28.081Z,1028.18
2019-02-26T02:32:26.620Z,1028.11
2019-02-26T02:33:28.957Z,1028.10
2019-02-26T02:34:28.911Z,1028.16
2019-02-26T02:35:25.417Z,1028.10
2019-02-26T02:36:26.387Z,1028.06
2019-02-26T02:37:26.858Z,1028.07
2019-02-26T02:38:25.386Z,1028.05
2019-02-26T02:39:26.444Z,1028.08
2019-02-26T02:40:25.376Z,1028.10
2019-02-26T02:41:25.354Z,1028.14
2019-02-26T02:42:25.344Z,1028.10
2019-02-26T02:43:25.335Z,1028.07
2019-02-26T02:44:25.633Z,1028.04
2019-02-26T02:45:25.308Z,1028.00
2019-02-26T02:46:25.302Z,1028.01
2019-02-26T02:47:27.792Z,1028.02
2019-02-26T02:48:25.278Z,1027.94
2019-02-26T02:49:25.280Z,1027.95
2019-02-26T02:50:25.256Z,1027.87
2019-02-26T02:51:25.745Z,1027.88
2019-02-26T02:52:27.053Z,1027.86
2019-02-26T02:53:27.272Z,1027.88
2019-02-26T02:54:26.168Z,1027.93
2019-02-26T02:55:25.200Z,1027.90
2019-02-26T02:56:25.191Z,1027.94
2019-02-26T02:57:26.938Z,1027.90
2019-02-26T02:58:26.073Z,1027.88
2019-02-26T02:59:25.189Z,1027.85
2019-02-26T03:00:26.549Z,1027.80
2019-02-26T03:01:28.654Z,1027.77
2019-02-26T03:02:25.125Z,1027.79
2019-02-26T03:03:25.115Z,1027.82
2019-02-26T03:04:26.049Z,1027.77
2019-02-26T03:05:25.095Z,1027.75
2019-02-26T03:06:29.525Z,1027.78
2019-02-26T03:07:27.496Z,1027.78
2019-02-26T03:08:25.057Z,1027.73
2019-02-26T03:09:25.070Z,1027.73
2019-02-26T03:10:28.408Z,1027.69
2019-02-26T03:11:25.051Z,1027.69
2019-02-26T03:12:25.014Z,1027.65
2019-02-26T03:13:26.010Z,1027.64
2019-02-26T03:14:25.027Z,1027.58
2019-02-26T03:15:27.225Z,1027.60
2019-02-26T03:16:27.039Z,1027.53
2019-02-26T03:17:24.968Z,1027.52
2019-02-26T03:18:24.953Z,1027.45
2019-02-26T03:19:24.997Z,1027.49
2019-02-26T03:20:27.668Z,1027.49
2019-02-26T03:21:27.718Z,1027.46
2019-02-26T03:22:24.931Z,1027.43
2019-02-26T03:23:24.945Z,1027.43
2019-02-26T03:24:26.308Z,1027.50
2019-02-26T03:25:27.012Z,1027.52
2019-02-26T03:26:25.937Z,1027.45
2019-02-26T03:27:27.795Z,1027.50
2019-02-26T03:28:24.904Z,1027.43
2019-02-26T03:29:24.850Z,1027.48
2019-02-26T03:30:36.909Z,1027.46
2019-02-26T03:31:33.707Z,1027.53
2019-02-26T03:32:24.804Z,1027.55
2019-02-26T03:33:24.812Z,1027.55
2019-02-26T03:34:25.515Z,1027.59
2019-02-26T03:35:24.765Z,1027.59
2019-02-26T03:36:24.761Z,1027.60
2019-02-26T03:37:25.853Z,1027.58
2019-02-26T03:38:26.849Z,1027.61
2019-02-26T03:39:24.741Z,1027.65
2019-02-26T03:40:27.298Z,1027.61
2019-02-26T03:41:26.145Z,1027.66
2019-02-26T03:42:24.710Z,1027.63
2019-02-26T03:43:24.695Z,1027.59
2019-02-26T03:44:24.690Z,1027.58
2019-02-26T03:45:25.227Z,1027.59
2019-02-26T03:46:24.648Z,1027.53
2019-02-26T03:47:24.634Z,1027.56
2019-02-26T03:48:24.629Z,1027.56
2019-02-26T03:49:27.097Z,1027.51
2019-02-26T03:50:27.122Z,1027.48
2019-02-26T03:51:24.595Z,1027.50
2019-02-26T03:52:24.581Z,1027.49
2019-02-26T03:53:28.052Z,1027.40
2019-02-26T03:54:24.611Z,1027.40
2019-02-26T03:55:24.550Z,1027.38
2019-02-26T03:56:24.539Z,1027.34
2019-02-26T03:57:24.858Z,1027.39
2019-02-26T03:58:24.517Z,1027.37
2019-02-26T03:59:24.521Z,1027.38
2019-02-26T04:00:24.492Z,1027.33
2019-02-26T04:01:24.485Z,1027.40
2019-02-26T04:02:24.475Z,1027.34
2019-02-26T04:03:24.460Z,1027.32
2019-02-26T04:04:26.142Z,1027.30
2019-02-26T04:05:24.445Z,1027.27
2019-02-26T04:06:24.437Z,1027.26
2019-02-26T04:07:26.016Z,1027.27
2019-02-26T04:08:26.904Z,1027.30
2019-02-26T04:09:24.394Z,1027.29
2019-02-26T04:10:24.406Z,1027.33
2019-02-26T04:11:25.602Z,1027.33
2019-02-26T04:12:24.363Z,1027.37
2019-02-26T04:13:24.353Z,1027.41
2019-02-26T04:14:26.389Z,1027.37
2019-02-26T04:15:27.113Z,1027.43
2019-02-26T04:16:24.318Z,1027.43
2019-02-26T04:17:27.949Z,1027.45
2019-02-26T04:18:24.296Z,1027.47
2019-02-26T04:19:26.790Z,1027.46
2019-02-26T04:20:26.935Z,1027.48
2019-02-26T04:21:24.264Z,1027.53
2019-02-26T04:22:26.427Z,1027.49
2019-02-26T04:23:24.250Z,1027.52
2019-02-26T04:24:25.888Z,1027.56
2019-02-26T04:25:27.006Z,1027.56
2019-02-26T04:26:26.183Z,1027.53
2019-02-26T04:27:24.201Z,1027.58
2019-02-26T04:28:27.227Z,1027.55
2019-02-26T04:29:24.182Z,1027.56
2019-02-26T04:30:24.210Z,1027.58
2019-02-26T04:31:24.157Z,1027.60
2019-02-26T04:32:24.147Z,1027.58
2019-02-26T04:33:24.139Z,1027.63
2019-02-26T04:34:24.125Z,1027.59
2019-02-26T04:35:24.130Z,1027.59
2019-02-26T04:36:24.104Z,1027.58
2019-02-26T04:37:24.795Z,1027.60
2019-02-26T04:38:26.703Z,1027.61
2019-02-26T04:39:24.156Z,1027.62
2019-02-26T04:40:27.217Z,1027.62
2019-02-26T04:41:24.050Z,1027.61
2019-02-26T04:42:24.037Z,1027.61
2019-02-26T04:43:25.564Z,1027.65
2019-02-26T04:44:26.386Z,1027.62
2019-02-26T04:45:24.033Z,1027.63
2019-02-26T04:46:25.626Z,1027.64
2019-02-26T04:47:25.064Z,1027.64
2019-02-26T04:48:26.961Z,1027.63
2019-02-26T04:49:27.120Z,1027.68
2019-02-26T04:50:28.725Z,1027.66
2019-02-26T04:51:24.052Z,1027.70
2019-02-26T04:52:23.929Z,1027.69
2019-02-26T04:53:25.819Z,1027.68
2019-02-26T04:54:26.356Z,1027.70
2019-02-26T04:55:23.920Z,1027.71
2019-02-26T04:56:23.888Z,1027.77
2019-02-26T04:57:23.889Z,1027.80
2019-02-26T04:58:23.863Z,1027.82
2019-02-26T04:59:23.850Z,1027.78
2019-02-26T05:00:27.025Z,1027.80
2019-02-26T05:01:23.875Z,1027.80
2019-02-26T05:02:23.820Z,1027.81
2019-02-26T05:03:23.808Z,1027.80
2019-02-26T05:04:23.840Z,1027.83
2019-02-26T05:05:25.876Z,1027.80
2019-02-26T05:06:23.806Z,1027.84
2019-02-26T05:07:23.769Z,1027.87
2019-02-26T05:08:23.757Z,1027.85
2019-02-26T05:09:24.728Z,1027.84
2019-02-26T05:10:26.463Z,1027.86
2019-02-26T05:11:31.765Z,1027.80
2019-02-26T05:12:25.455Z,1027.84
2019-02-26T05:13:25.212Z,1027.83
2019-02-26T05:14:23.729Z,1027.84
2019-02-26T05:15:26.400Z,1027.86
2019-02-26T05:16:26.634Z,1027.88
2019-02-26T05:17:26.432Z,1027.85
2019-02-26T05:18:25.822Z,1027.84
2019-02-26T05:19:24.365Z,1027.86
2019-02-26T05:20:23.629Z,1027.84
2019-02-26T05:21:24.473Z,1027.90
2019-02-26T05:22:25.597Z,1027.86
2019-02-26T05:23:25.912Z,1027.88
2019-02-26T05:24:25.835Z,1027.87
2019-02-26T05:25:23.568Z,1027.88
2019-02-26T05:26:23.577Z,1027.87
2019-02-26T05:27:24.948Z,1027.89
2019-02-26T05:28:23.536Z,1027.91
2019-02-26T05:29:23.531Z,1027.95
2019-02-26T05:30:23.648Z,1027.87
2019-02-26T05:31:23.524Z,1027.86
2019-02-26T05:32:25.039Z,1027.85
2019-02-26T05:33:25.285Z,1027.84
2019-02-26T05:34:25.849Z,1027.82
2019-02-26T05:35:25.330Z,1027.86
2019-02-26T05:36:23.481Z,1027.83
2019-02-26T05:37:23.437Z,1027.84
2019-02-26T05:38:24.095Z,1027.81
2019-02-26T05:39:24.245Z,1027.82
2019-02-26T05:40:23.408Z,1027.85
2019-02-26T05:41:23.423Z,1027.88
2019-02-26T05:42:23.387Z,1027.91
2019-02-26T05:43:25.750Z,1027.87
2019-02-26T05:44:23.363Z,1027.90
2019-02-26T05:45:23.871Z,1027.85
2019-02-26T05:46:26.389Z,1027.85
2019-02-26T05:47:24.033Z,1027.84
2019-02-26T05:48:25.779Z,1027.85
2019-02-26T05:49:23.351Z,1027.88
2019-02-26T05:50:23.299Z,1027.90
2019-02-26T05:51:24.507Z,1027.90
2019-02-26T05:52:24.369Z,1027.96
2019-02-26T05:53:23.268Z,1027.93
2019-02-26T05:54:24.488Z,1027.95
2019-02-26T05:55:25.487Z,1027.98
2019-02-26T05:56:23.257Z,1027.96
2019-02-26T05:57:27.759Z,1028.02
2019-02-26T05:58:23.220Z,1028.04
2019-02-26T05:59:23.345Z,1028.04
2019-02-26T06:00:26.319Z,1028.05
2019-02-26T06:01:24.949Z,1028.05
2019-02-26T06:02:24.667Z,1028.04
2019-02-26T06:03:23.166Z,1028.00
2019-02-26T06:04:23.197Z,1028.02
2019-02-26T06:05:25.960Z,1028.01
2019-02-26T06:06:23.275Z,1028.03
2019-02-26T06:07:27.033Z,1028.05
2019-02-26T06:08:25.610Z,1028.06
2019-02-26T06:09:25.479Z,1028.05
2019-02-26T06:10:24.610Z,1028.03
2019-02-26T06:11:23.066Z,1028.01
2019-02-26T06:12:23.238Z,1028.03
2019-02-26T06:13:23.143Z,1028.04
2019-02-26T06:14:25.475Z,1028.08
2019-02-26T06:15:25.711Z,1028.03
2019-02-26T06:16:24.467Z,1028.07
2019-02-26T06:17:23.173Z,1028.06
2019-02-26T06:18:22.989Z,1028.03
2019-02-26T06:19:22.978Z,1028.08
2019-02-26T06:20:23.640Z,1028.06
2019-02-26T06:21:23.501Z,1028.06
2019-02-26T06:22:26.047Z,1028.07
2019-02-26T06:23:23.231Z,1028.01
2019-02-26T06:24:24.821Z,1028.03
2019-02-26T06:25:24.438Z,1028.03
2019-02-26T06:26:22.906Z,1028.09
2019-02-26T06:27:25.225Z,1028.09
2019-02-26T06:28:22.882Z,1028.11
2019-02-26T06:29:24.728Z,1028.09
2019-02-26T06:34:21.231Z,1028.12
2019-02-26T06:35:01.566Z,1028.12
2019-02-26T06:36:01.754Z,1028.09
2019-02-26T06:37:00.537Z,1028.15
2019-02-26T06:38:02.099Z,1028.16
2019-02-26T06:39:01.514Z,1028.12
2019-02-26T06:40:02.483Z,1028.13
2019-02-26T06:41:00.494Z,1028.14
2019-02-26T06:42:00.484Z,1028.21
2019-02-26T06:43:00.507Z,1028.22
2019-02-26T06:44:00.471Z,1028.15
2019-02-26T06:45:00.454Z,1028.13
2019-02-26T06:46:02.586Z,1028.11
2019-02-26T06:47:02.492Z,1028.13
2019-02-26T06:48:00.460Z,1028.16
2019-02-26T06:49:08.953Z,1028.15
2019-02-26T06:50:02.770Z,1028.07
2019-02-26T06:51:08.634Z,1028.09
2019-02-26T06:52:00.377Z,1028.11
2019-02-26T06:53:04.410Z,1028.08
2019-02-26T06:54:01.076Z,1028.09
2019-02-26T06:55:02.888Z,1028.09
2019-02-26T06:56:00.846Z,1028.07
2019-02-26T06:57:00.325Z,1028.09
2019-02-26T06:58:00.328Z,1028.10
2019-02-26T06:59:00.729Z,1028.09
2019-02-26T07:00:01.171Z,1028.11
2019-02-26T07:01:00.281Z,1028.12
2019-02-26T07:02:00.267Z,1028.15
2019-02-26T07:03:02.629Z,1028.09
2019-02-26T07:04:00.251Z,1028.10
2019-02-26T07:05:00.255Z,1028.11
2019-02-26T07:06:03.209Z,1028.12
2019-02-26T07:07:01.919Z,1028.12
2019-02-26T07:08:02.033Z,1028.08
2019-02-26T07:09:00.196Z,1028.09
2019-02-26T07:10:00.241Z,1028.06
2019-02-26T07:11:00.167Z,1028.12
2019-02-26T07:12:00.159Z,1028.11
2019-02-26T07:13:02.054Z,1028.17
2019-02-26T07:14:01.311Z,1028.11
2019-02-26T07:15:00.245Z,1028.02
2019-02-26T07:16:00.113Z,1028.04
2019-02-26T07:17:00.100Z,1028.02
2019-02-26T07:18:04.335Z,1028.00
2019-02-26T07:19:01.121Z,1028.02
2019-02-26T07:20:00.878Z,1027.97
2019-02-26T07:21:00.349Z,1027.98
2019-02-26T07:22:00.045Z,1028.00
2019-02-26T07:23:00.100Z,1028.02
2019-02-26T07:24:01.191Z,1027.94
2019-02-26T07:25:00.015Z,1028.00
2019-02-26T07:26:00.003Z,1027.95
2019-02-26T07:27:01.975Z,1027.98
2019-02-26T07:28:01.202Z,1028.02
2019-02-26T07:28:59.994Z,1027.98
2019-02-26T07:29:59.964Z,1027.96
2019-02-26T07:31:02.487Z,1027.95
2019-02-26T07:31:59.951Z,1027.97
2019-02-26T07:32:59.932Z,1027.98
2019-02-26T07:34:01.385Z,1027.98
2019-02-26T07:34:59.904Z,1027.95
2019-02-26T07:36:01.776Z,1027.94
2019-02-26T07:36:59.882Z,1027.94
2019-02-26T07:38:01.323Z,1027.90
2019-02-26T07:38:59.881Z,1027.92
2019-02-26T07:39:59.859Z,1027.93
2019-02-26T07:41:01.915Z,1027.95
2019-02-26T07:41:59.828Z,1027.91
2019-02-26T07:42:59.832Z,1027.83
2019-02-26T07:44:00.071Z,1027.89
2019-02-26T07:44:59.792Z,1027.88
2019-02-26T07:45:59.782Z,1027.85
2019-02-26T07:47:00.922Z,1027.87
2019-02-26T07:48:00.973Z,1027.94
2019-02-26T07:49:01.927Z,1027.93
2019-02-26T07:50:01.625Z,1027.95
2019-02-26T07:50:59.735Z,1027.97
2019-02-26T07:52:00.339Z,1027.93
2019-02-26T07:52:59.707Z,1027.95
2019-02-26T07:54:00.718Z,1027.95
2019-02-26T07:54:59.691Z,1027.96
2019-02-26T07:56:01.766Z,1027.93
2019-02-26T07:57:00.592Z,1027.89
2019-02-26T07:57:59.655Z,1027.87
2019-02-26T07:59:03.770Z,1027.86
2019-02-26T07:59:59.628Z,1027.85
2019-02-26T08:00:59.621Z,1027.84
2019-02-26T08:02:01.368Z,1027.81
2019-02-26T08:03:00.150Z,1027.75
2019-02-26T08:03:59.619Z,1027.75
2019-02-26T08:04:59.578Z,1027.78
2019-02-26T08:06:04.094Z,1027.78
2019-02-26T08:07:01.336Z,1027.74
2019-02-26T08:07:59.553Z,1027.80
2019-02-26T08:08:59.549Z,1027.75
2019-02-26T08:09:59.541Z,1027.75
2019-02-26T08:10:59.510Z,1027.69
2019-02-26T08:12:01.462Z,1027.72
2019-02-26T08:13:01.536Z,1027.73
2019-02-26T08:14:01.473Z,1027.69
2019-02-26T08:14:59.458Z,1027.67
2019-02-26T08:16:00.109Z,1027.68
2019-02-26T08:17:01.297Z,1027.72
2019-02-26T08:18:01.290Z,1027.68
2019-02-26T08:19:01.314Z,1027.58
2019-02-26T08:20:01.675Z,1027.65
2019-02-26T08:21:00.758Z,1027.63
2019-02-26T08:21:59.402Z,1027.61
2019-02-26T08:23:01.308Z,1027.61
2019-02-26T08:23:59.377Z,1027.70
2019-02-26T08:24:59.374Z,1027.64
2019-02-26T08:26:00.533Z,1027.68
2019-02-26T08:27:01.420Z,1027.67
2019-02-26T08:28:01.293Z,1027.70
2019-02-26T08:29:00.202Z,1027.72
2019-02-26T08:30:00.899Z,1027.73
2019-02-26T08:30:59.278Z,1027.73
2019-02-26T08:32:01.199Z,1027.77
2019-02-26T08:33:02.072Z,1027.72
2019-02-26T08:33:59.285Z,1027.74
2019-02-26T08:34:59.993Z,1027.79
2019-02-26T08:35:59.223Z,1027.74
2019-02-26T08:36:59.215Z,1027.73
2019-02-26T08:37:59.206Z,1027.75
2019-02-26T08:38:59.254Z,1027.74
2019-02-26T08:39:59.182Z,1027.65
2019-02-26T08:40:59.167Z,1027.77
2019-02-26T08:41:59.203Z,1027.71
2019-02-26T08:42:59.148Z,1027.75
2019-02-26T08:43:59.140Z,1027.75
2019-02-26T08:44:59.144Z,1027.72
2019-02-26T08:45:59.124Z,1027.73
2019-02-26T08:46:59.111Z,1027.67
2019-02-26T08:47:59.088Z,1027.70
2019-02-26T08:49:07.866Z,1027.70
2019-02-26T08:50:01.266Z,1027.65
2019-02-26T08:51:03.354Z,1027.66
2019-02-26T08:51:59.047Z,1027.61
2019-02-26T08:52:59.046Z,1027.59
2019-02-26T08:53:59.040Z,1027.59
2019-02-26T08:54:59.034Z,1027.49
2019-02-26T08:56:01.419Z,1027.54
2019-02-26T08:56:59.025Z,1027.55
2019-02-26T08:57:58.995Z,1027.54
2019-02-26T08:59:00.842Z,1027.53
2019-02-26T08:59:58.977Z,1027.55
2019-02-26T09:00:58.944Z,1027.58
2019-02-26T09:01:58.941Z,1027.56
2019-02-26T09:02:58.932Z,1027.55
2019-02-26T09:04:00.761Z,1027.53
2019-02-26T09:04:59.752Z,1027.59
2019-02-26T09:06:12.442Z,1027.57
2019-02-26T09:07:00.265Z,1027.58
2019-02-26T09:07:58.885Z,1027.51
2019-02-26T09:09:00.172Z,1027.56
2019-02-26T09:09:58.891Z,1027.59
2019-02-26T09:11:00.743Z,1027.59
2019-02-26T09:12:00.635Z,1027.53
2019-02-26T09:12:58.818Z,1027.59
2019-02-26T09:13:59.578Z,1027.61
2019-02-26T09:14:58.826Z,1027.56
2019-02-26T09:16:01.059Z,1027.53
2019-02-26T09:16:59.621Z,1027.56
2019-02-26T09:17:58.791Z,1027.53
2019-02-26T09:18:58.778Z,1027.48
2019-02-26T09:20:08.482Z,1027.49
2019-02-26T09:20:58.731Z,1027.48
2019-02-26T09:21:58.762Z,1027.48
2019-02-26T09:22:59.663Z,1027.52
2019-02-26T09:24:00.015Z,1027.46
2019-02-26T09:24:59.906Z,1027.47
2019-02-26T09:26:00.383Z,1027.49
2019-02-26T09:27:00.472Z,1027.46
2019-02-26T09:27:58.656Z,1027.46
2019-02-26T09:28:58.652Z,1027.42
2019-02-26T09:29:58.650Z,1027.45
2019-02-26T09:31:01.295Z,1027.41
2019-02-26T09:31:58.611Z,1027.43
2019-02-26T09:33:00.849Z,1027.44
2019-02-26T09:33:58.588Z,1027.41
2019-02-26T09:34:59.249Z,1027.46
2019-02-26T09:35:58.617Z,1027.46
2019-02-26T09:37:00.510Z,1027.43
2019-02-26T09:38:00.899Z,1027.48
2019-02-26T09:38:58.538Z,1027.39
2019-02-26T09:39:59.248Z,1027.38
2019-02-26T09:40:58.529Z,1027.37
2019-02-26T09:41:59.440Z,1027.43
2019-02-26T09:43:00.104Z,1027.42
2019-02-26T09:43:59.360Z,1027.43
2019-02-26T09:45:00.207Z,1027.42
2019-02-26T09:45:58.476Z,1027.51
2019-02-26T09:47:00.590Z,1027.43
2019-02-26T09:47:58.453Z,1027.49
2019-02-26T09:49:00.346Z,1027.47
2019-02-26T09:49:58.521Z,1027.50
2019-02-26T09:50:58.432Z,1027.44
2019-02-26T09:51:59.063Z,1027.48
2019-02-26T09:52:59.224Z,1027.43
2019-02-26T09:53:58.966Z,1027.44
2019-02-26T09:54:58.363Z,1027.48
2019-02-26T09:55:58.378Z,1027.46
2019-02-26T09:56:58.335Z,1027.52
2019-02-26T09:57:58.329Z,1027.45
2019-02-26T09:58:58.341Z,1027.53
2019-02-26T10:00:00.252Z,1027.49
2019-02-26T10:00:58.309Z,1027.51
2019-02-26T10:01:58.936Z,1027.52
2019-02-26T10:02:58.296Z,1027.48
2019-02-26T10:04:00.802Z,1027.48
2019-02-26T10:04:58.248Z,1027.52
2019-02-26T10:05:58.269Z,1027.50
2019-02-26T10:06:58.245Z,1027.53
2019-02-26T10:08:00.490Z,1027.53
2019-02-26T10:08:58.208Z,1027.47
2019-02-26T10:09:59.848Z,1027.55
2019-02-26T10:11:00.211Z,1027.55
2019-02-26T10:11:58.169Z,1027.53
2019-02-26T10:13:01.462Z,1027.55
2019-02-26T10:13:58.171Z,1027.57
2019-02-26T10:15:00.151Z,1027.58
2019-02-26T10:15:59.292Z,1027.59
2019-02-26T10:16:58.138Z,1027.60
2019-02-26T10:17:59.576Z,1027.57
2019-02-26T10:18:58.110Z,1027.55
2019-02-26T10:19:59.373Z,1027.57
2019-02-26T10:20:58.110Z,1027.56
2019-02-26T10:22:00.033Z,1027.55
2019-02-26T10:23:00.746Z,1027.55
2019-02-26T10:23:59.433Z,1027.47
2019-02-26T10:24:58.039Z,1027.54
2019-02-26T10:26:00.185Z,1027.55
2019-02-26T10:27:00.793Z,1027.57
2019-02-26T10:28:03.126Z,1027.58
2019-02-26T10:29:04.210Z,1027.49
2019-02-26T10:29:57.983Z,1027.55
2019-02-26T10:31:03.864Z,1027.54
2019-02-26T10:31:57.976Z,1027.54
2019-02-26T10:33:01.842Z,1027.54
2019-02-26T10:33:57.948Z,1027.55
2019-02-26T10:34:57.932Z,1027.52
2019-02-26T10:35:57.960Z,1027.53
2019-02-26T10:36:57.907Z,1027.51
2019-02-26T10:38:00.446Z,1027.49
2019-02-26T10:39:00.250Z,1027.47
2019-02-26T10:39:57.907Z,1027.46
2019-02-26T10:40:59.748Z,1027.47
2019-02-26T10:42:01.941Z,1027.47
2019-02-26T10:42:57.861Z,1027.47
2019-02-26T10:43:57.835Z,1027.45
2019-02-26T10:44:57.827Z,1027.50
2019-02-26T10:45:57.873Z,1027.50
2019-02-26T10:46:58.928Z,1027.43
2019-02-26T10:48:00.961Z,1027.53
2019-02-26T10:48:57.789Z,1027.48
2019-02-26T10:49:57.807Z,1027.45
2019-02-26T10:50:57.778Z,1027.44
2019-02-26T10:51:58.632Z,1027.42
2019-02-26T10:53:05.705Z,1027.42
2019-02-26T10:53:59.945Z,1027.41
2019-02-26T10:54:57.747Z,1027.41
2019-02-26T10:55:57.718Z,1027.43
2019-02-26T10:57:00.183Z,1027.37
2019-02-26T10:57:58.700Z,1027.42
2019-02-26T10:59:02.770Z,1027.40
2019-02-26T10:59:59.527Z,1027.37
2019-02-26T11:00:59.431Z,1027.35
2019-02-26T11:02:00.159Z,1027.35
2019-02-26T11:02:57.658Z,1027.36
2019-02-26T11:03:57.652Z,1027.32
2019-02-26T11:04:57.758Z,1027.29
2019-02-26T11:05:57.613Z,1027.32
2019-02-26T11:06:59.403Z,1027.28
2019-02-26T11:07:59.729Z,1027.33
2019-02-26T11:08:59.294Z,1027.28
2019-02-26T11:09:58.835Z,1027.26
2019-02-26T11:10:57.593Z,1027.23
2019-02-26T11:12:00.041Z,1027.23
2019-02-26T11:12:59.496Z,1027.25
2019-02-26T11:13:57.562Z,1027.23
2019-02-26T11:14:58.638Z,1027.22
2019-02-26T11:15:59.828Z,1027.21
2019-02-26T11:16:58.567Z,1027.21
2019-02-26T11:17:57.491Z,1027.18
2019-02-26T11:18:59.334Z,1027.15
2019-02-26T11:19:58.523Z,1027.11
2019-02-26T11:20:59.283Z,1027.11
2019-02-26T11:21:58.661Z,1027.10
2019-02-26T11:22:57.441Z,1027.09
2019-02-26T11:23:58.474Z,1027.07
2019-02-26T11:24:58.565Z,1027.08
2019-02-26T11:25:57.411Z,1027.09
2019-02-26T11:26:57.439Z,1027.04
2019-02-26T11:27:57.389Z,1027.10
2019-02-26T11:28:57.410Z,1027.09
2019-02-26T11:29:59.462Z,1027.04
2019-02-26T11:30:57.377Z,1027.11
2019-02-26T11:31:57.376Z,1027.12
2019-02-26T11:33:02.098Z,1027.10
2019-02-26T11:34:00.884Z,1027.06
2019-02-26T11:34:58.115Z,1027.06
2019-02-26T11:35:59.541Z,1027.03
2019-02-26T11:36:58.571Z,1027.04
2019-02-26T11:37:58.080Z,1026.98
2019-02-26T11:38:59.922Z,1027.00
2019-02-26T11:39:58.249Z,1026.99
2019-02-26T11:40:57.254Z,1026.97
2019-02-26T11:42:00.763Z,1026.96
2019-02-26T11:42:59.662Z,1027.01
2019-02-26T11:43:57.250Z,1026.93
2019-02-26T11:44:57.245Z,1026.86
2019-02-26T11:45:59.095Z,1026.86
2019-02-26T11:46:57.233Z,1026.82
2019-02-26T11:47:58.183Z,1026.85
2019-02-26T11:48:57.561Z,1026.83
2019-02-26T11:49:59.506Z,1026.80
2019-02-26T11:51:00.810Z,1026.76
2019-02-26T11:51:57.162Z,1026.75
2019-02-26T11:52:57.164Z,1026.78
2019-02-26T11:53:57.120Z,1026.79
2019-02-26T11:54:58.891Z,1026.78
2019-02-26T11:55:59.159Z,1026.74
2019-02-26T11:56:57.102Z,1026.80
2019-02-26T11:57:57.089Z,1026.79
2019-02-26T11:58:57.057Z,1026.81
2019-02-26T11:59:57.655Z,1026.78
2019-02-26T12:00:57.446Z,1026.77
2019-02-26T12:01:58.941Z,1026.79
2019-02-26T12:02:57.074Z,1026.80
2019-02-26T12:04:03.234Z,1026.74
2019-02-26T12:04:59.965Z,1026.75
2019-02-26T12:06:00.582Z,1026.75
2019-02-26T12:06:58.531Z,1026.78
2019-02-26T12:07:58.810Z,1026.70
2019-02-26T12:08:56.954Z,1026.69